Terminal Aerodrome Forecast
Issued by NWS

Home | Current Version | Previous Version | Text Only | Print | Product List | Glossary On
Versions: 1 2 3 4 5 6 7 8 9 10 11 12 13 14 15 16
081
FTUS45 KABQ 061133
TAFLVS
TAF
KLVS 061133Z 0612/0712 18015KT P6SM BKN130
     FM061700 19020G30KT P6SM BKN120
     FM070100 20015KT P6SM SCT200
     FM070800 22015G24KT P6SM SCT200=

USA.gov is the U.S. government's official web portal to all federal, state and local government web resources and services.